METAR and TAF’s


Available data for KLBB from the past 2 hours
LUBBOCK, TX
Metar
KLBB 221353Z 28006KT 10SM SCT250 01/M03 A2973 RMK AO2 SLP054 T00111028

13:53 UTC

Wind: 280° 6kt

Visibility: 10 SM

Sky: SCT 25000 ft

Temp: 1 deg C / 33.8 deg F

Dewpoint: -3 deg C / 26.6 deg F

Pressure: 29.73 inHg

TAF
KLBB 221124Z 2212/2312 28011KT P6SM SCT250 FM221700 35024G32KT P6SM SCT030 FM230300 32011KT P6SM SKC
Available data for KCVN from the past 2 hours
CLOVIS MUNI, NM
Metar
KCVN 221356Z AUTO 26008KT 10SM CLR M02/M06 A2976 RMK AO2 SLP079 T10221056 FZRANO

13:56 UTC

Wind: 260° 8kt

Visibility: 10 SM

Sky:

Temp: -2 deg C / 28.4 deg F

Dewpoint: -6 deg C / 21.2 deg F

Pressure: 29.76 inHg

Pirep (1)
CVN UA /OV TXO/TM 1333/FL320/TP B737/TB CONS LGT CHOP/RM ZAB/FDCS